sensor_id;sensor_type;location;lat;lon;timestamp;temperature;humidity
20891;DHT22;10605;52.968;8.844;2024-01-30T00:01:45;2.80;99.90
20891;DHT22;10605;52.968;8.844;2024-01-30T00:04:11;2.80;99.90
20891;DHT22;10605;52.968;8.844;2024-01-30T00:06:37;2.80;99.90
20891;DHT22;10605;52.968;8.844;2024-01-30T00:09:02;2.70;99.90
20891;DHT22;10605;52.968;8.844;2024-01-30T00:11:28;2.70;99.90
20891;DHT22;10605;52.968;8.844;2024-01-30T00:13:54;2.70;99.90
20891;DHT22;10605;52.968;8.844;2024-01-30T00:16:24;2.70;99.90
20891;DHT22;10605;52.968;8.844;2024-01-30T00:18:53;2.60;99.90
20891;DHT22;10605;52.968;8.844;2024-01-30T00:21:19;2.60;99.90
20891;DHT22;10605;52.968;8.844;2024-01-30T00:23:45;2.60;99.90
20891;DHT22;10605;52.968;8.844;2024-01-30T00:26:11;2.50;99.90
20891;DHT22;10605;52.968;8.844;2024-01-30T00:28:41;2.50;99.90
20891;DHT22;10605;52.968;8.844;2024-01-30T00:31:06;2.40;99.90
20891;DHT22;10605;52.968;8.844;2024-01-30T00:33:32;2.40;99.90
20891;DHT22;10605;52.968;8.844;2024-01-30T00:35:58;2.40;99.90
20891;DHT22;10605;52.968;8.844;2024-01-30T00:38:23;2.40;99.90
20891;DHT22;10605;52.968;8.844;2024-01-30T00:40:49;2.40;99.90
20891;DHT22;10605;52.968;8.844;2024-01-30T00:43:15;2.30;99.90
20891;DHT22;10605;52.968;8.844;2024-01-30T00:45:43;2.30;99.90
20891;DHT22;10605;52.968;8.844;2024-01-30T00:48:08;2.30;99.90
20891;DHT22;10605;52.968;8.844;2024-01-30T00:50:34;2.30;99.90
20891;DHT22;10605;52.968;8.844;2024-01-30T00:52:59;2.30;99.90
20891;DHT22;10605;52.968;8.844;2024-01-30T00:55:25;2.30;99.90
20891;DHT22;10605;52.968;8.844;2024-01-30T00:57:51;2.50;99.90
20891;DHT22;10605;52.968;8.844;2024-01-30T01:00:16;2.50;99.90
20891;DHT22;10605;52.968;8.844;2024-01-30T01:02:42;2.40;99.90
20891;DHT22;10605;52.968;8.844;2024-01-30T01:05:08;2.40;99.90
20891;DHT22;10605;52.968;8.844;2024-01-30T01:07:34;2.50;99.90
20891;DHT22;10605;52.968;8.844;2024-01-30T01:10:00;2.40;99.90
20891;DHT22;10605;52.968;8.844;2024-01-30T01:12:26;2.50;99.90
20891;DHT22;10605;52.968;8.844;2024-01-30T01:14:51;2.50;99.90
20891;DHT22;10605;52.968;8.844;2024-01-30T01:17:17;2.50;99.90
20891;DHT22;10605;52.968;8.844;2024-01-30T01:19:44;2.40;99.90
20891;DHT22;10605;52.968;8.844;2024-01-30T01:22:10;2.40;99.90
20891;DHT22;10605;52.968;8.844;2024-01-30T01:24:36;2.40;99.90
20891;DHT22;10605;52.968;8.844;2024-01-30T01:27:02;2.50;99.90
20891;DHT22;10605;52.968;8.844;2024-01-30T01:29:27;2.70;99.90
20891;DHT22;10605;52.968;8.844;2024-01-30T01:31:56;2.80;99.90
20891;DHT22;10605;52.968;8.844;2024-01-30T01:34:22;3.00;99.90
20891;DHT22;10605;52.968;8.844;2024-01-30T01:36:51;3.10;99.90
20891;DHT22;10605;52.968;8.844;2024-01-30T01:39:17;3.30;99.90
20891;DHT22;10605;52.968;8.844;2024-01-30T01:41:43;3.30;99.90
20891;DHT22;10605;52.968;8.844;2024-01-30T01:44:09;3.40;99.90
20891;DHT22;10605;52.968;8.844;2024-01-30T01:46:35;3.60;99.90
20891;DHT22;10605;52.968;8.844;2024-01-30T01:49:03;3.60;99.90
20891;DHT22;10605;52.968;8.844;2024-01-30T01:51:31;3.70;99.90
20891;DHT22;10605;52.968;8.844;2024-01-30T01:53:57;3.70;99.90
20891;DHT22;10605;52.968;8.844;2024-01-30T01:56:24;3.80;99.90
20891;DHT22;10605;52.968;8.844;2024-01-30T01:58:51;3.90;99.90
20891;DHT22;10605;52.968;8.844;2024-01-30T02:01:21;3.90;99.90
20891;DHT22;10605;52.968;8.844;2024-01-30T02:03:47;4.00;99.90
20891;DHT22;10605;52.968;8.844;2024-01-30T02:06:14;4.10;99.90
20891;DHT22;10605;52.968;8.844;2024-01-30T02:08:41;4.10;99.90
20891;DHT22;10605;52.968;8.844;2024-01-30T02:11:07;4.10;99.90
20891;DHT22;10605;52.968;8.844;2024-01-30T02:13:33;4.20;99.90
20891;DHT22;10605;52.968;8.844;2024-01-30T02:15:59;4.20;99.90
20891;DHT22;10605;52.968;8.844;2024-01-30T02:18:26;4.20;99.90
20891;DHT22;10605;52.968;8.844;2024-01-30T02:20:54;4.20;99.90
20891;DHT22;10605;52.968;8.844;2024-01-30T02:23:23;4.10;99.90
20891;DHT22;10605;52.968;8.844;2024-01-30T02:25:50;4.20;99.90
20891;DHT22;10605;52.968;8.844;2024-01-30T02:28:19;4.20;99.90
20891;DHT22;10605;52.968;8.844;2024-01-30T02:30:45;4.20;99.90
20891;DHT22;10605;52.968;8.844;2024-01-30T02:33:14;4.10;99.90
20891;DHT22;10605;52.968;8.844;2024-01-30T02:35:40;4.10;99.90
20891;DHT22;10605;52.968;8.844;2024-01-30T02:38:05;4.10;99.90
20891;DHT22;10605;52.968;8.844;2024-01-30T02:40:33;4.10;99.90
20891;DHT22;10605;52.968;8.844;2024-01-30T02:43:01;4.20;99.90
20891;DHT22;10605;52.968;8.844;2024-01-30T02:45:26;4.20;99.90
20891;DHT22;10605;52.968;8.844;2024-01-30T02:47:52;4.30;99.90
20891;DHT22;10605;52.968;8.844;2024-01-30T02:50:18;4.20;99.90
20891;DHT22;10605;52.968;8.844;2024-01-30T02:52:43;4.30;99.90
20891;DHT22;10605;52.968;8.844;2024-01-30T02:55:09;4.30;99.90
20891;DHT22;10605;52.968;8.844;2024-01-30T02:57:35;4.30;99.90
20891;DHT22;10605;52.968;8.844;2024-01-30T03:00:01;4.40;99.90
20891;DHT22;10605;52.968;8.844;2024-01-30T03:02:26;4.40;99.90
20891;DHT22;10605;52.968;8.844;2024-01-30T03:04:52;4.50;99.90
20891;DHT22;10605;52.968;8.844;2024-01-30T03:07:18;4.40;99.90
20891;DHT22;10605;52.968;8.844;2024-01-30T03:09:44;4.40;99.90
20891;DHT22;10605;52.968;8.844;2024-01-30T03:12:10;4.30;99.90
20891;DHT22;10605;52.968;8.844;2024-01-30T03:14:35;4.20;99.90
20891;DHT22;10605;52.968;8.844;2024-01-30T03:17:01;4.00;99.90
20891;DHT22;10605;52.968;8.844;2024-01-30T03:19:29;4.00;99.90
20891;DHT22;10605;52.968;8.844;2024-01-30T03:21:55;3.90;99.90
20891;DHT22;10605;52.968;8.844;2024-01-30T03:24:21;3.80;99.90
20891;DHT22;10605;52.968;8.844;2024-01-30T03:26:46;3.90;99.90
20891;DHT22;10605;52.968;8.844;2024-01-30T03:29:12;3.90;99.90
20891;DHT22;10605;52.968;8.844;2024-01-30T03:31:39;3.90;99.90
20891;DHT22;10605;52.968;8.844;2024-01-30T03:34:04;3.80;99.90
20891;DHT22;10605;52.968;8.844;2024-01-30T03:36:30;3.80;99.90
20891;DHT22;10605;52.968;8.844;2024-01-30T03:38:58;3.90;99.90
20891;DHT22;10605;52.968;8.844;2024-01-30T03:41:24;4.00;99.90
20891;DHT22;10605;52.968;8.844;2024-01-30T03:43:50;4.10;99.90
20891;DHT22;10605;52.968;8.844;2024-01-30T03:46:16;4.10;99.90
20891;DHT22;10605;52.968;8.844;2024-01-30T03:48:41;4.10;99.90
20891;DHT22;10605;52.968;8.844;2024-01-30T03:51:07;4.10;99.90
20891;DHT22;10605;52.968;8.844;2024-01-30T03:53:33;4.30;99.90
20891;DHT22;10605;52.968;8.844;2024-01-30T03:55:58;4.30;99.90
20891;DHT22;10605;52.968;8.844;2024-01-30T03:58:24;4.30;99.90
20891;DHT22;10605;52.968;8.844;2024-01-30T04:00:49;4.30;99.90
20891;DHT22;10605;52.968;8.844;2024-01-30T04:03:17;4.40;99.90
20891;DHT22;10605;52.968;8.844;2024-01-30T04:05:43;4.30;99.90
20891;DHT22;10605;52.968;8.844;2024-01-30T04:08:09;4.30;99.90
20891;DHT22;10605;52.968;8.844;2024-01-30T04:10:35;4.40;99.90
20891;DHT22;10605;52.968;8.844;2024-01-30T04:13:01;4.40;99.90
20891;DHT22;10605;52.968;8.844;2024-01-30T04:15:27;4.50;99.90
20891;DHT22;10605;52.968;8.844;2024-01-30T04:17:57;4.50;99.90
20891;DHT22;10605;52.968;8.844;2024-01-30T04:20:23;4.50;99.90
20891;DHT22;10605;52.968;8.844;2024-01-30T04:22:49;4.50;99.90
20891;DHT22;10605;52.968;8.844;2024-01-30T04:25:15;4.60;99.90
20891;DHT22;10605;52.968;8.844;2024-01-30T04:27:40;4.70;99.90
20891;DHT22;10605;52.968;8.844;2024-01-30T04:30:06;4.60;99.90
20891;DHT22;10605;52.968;8.844;2024-01-30T04:32:32;4.70;99.90
20891;DHT22;10605;52.968;8.844;2024-01-30T04:34:58;4.60;99.90
20891;DHT22;10605;52.968;8.844;2024-01-30T04:37:24;4.50;99.90
20891;DHT22;10605;52.968;8.844;2024-01-30T04:39:50;4.50;99.90
20891;DHT22;10605;52.968;8.844;2024-01-30T04:42:16;4.40;99.90
20891;DHT22;10605;52.968;8.844;2024-01-30T04:44:42;4.40;99.90
20891;DHT22;10605;52.968;8.844;2024-01-30T04:47:07;4.40;99.90
20891;DHT22;10605;52.968;8.844;2024-01-30T04:49:34;4.30;99.90
20891;DHT22;10605;52.968;8.844;2024-01-30T04:52:00;4.20;99.90
20891;DHT22;10605;52.968;8.844;2024-01-30T04:54:26;4.20;99.90
20891;DHT22;10605;52.968;8.844;2024-01-30T04:56:52;4.10;99.90
20891;DHT22;10605;52.968;8.844;2024-01-30T04:59:17;4.00;99.90
20891;DHT22;10605;52.968;8.844;2024-01-30T05:01:43;4.00;99.90
20891;DHT22;10605;52.968;8.844;2024-01-30T05:04:09;4.00;99.90
20891;DHT22;10605;52.968;8.844;2024-01-30T05:06:35;3.90;99.90
20891;DHT22;10605;52.968;8.844;2024-01-30T05:09:01;3.90;99.90
20891;DHT22;10605;52.968;8.844;2024-01-30T05:11:26;3.80;99.90
20891;DHT22;10605;52.968;8.844;2024-01-30T05:13:52;3.70;99.90
20891;DHT22;10605;52.968;8.844;2024-01-30T05:16:17;3.80;99.90
20891;DHT22;10605;52.968;8.844;2024-01-30T05:18:43;3.70;99.90
20891;DHT22;10605;52.968;8.844;2024-01-30T05:21:10;3.60;99.90
20891;DHT22;10605;52.968;8.844;2024-01-30T05:23:36;3.50;99.90
20891;DHT22;10605;52.968;8.844;2024-01-30T05:26:01;3.40;99.90
20891;DHT22;10605;52.968;8.844;2024-01-30T05:28:30;3.40;99.90
20891;DHT22;10605;52.968;8.844;2024-01-30T05:30:56;3.40;99.90
20891;DHT22;10605;52.968;8.844;2024-01-30T05:33:22;3.40;99.90
20891;DHT22;10605;52.968;8.844;2024-01-30T05:35:48;3.40;99.90
20891;DHT22;10605;52.968;8.844;2024-01-30T05:38:15;3.50;99.90
20891;DHT22;10605;52.968;8.844;2024-01-30T05:40:41;3.50;99.90
20891;DHT22;10605;52.968;8.844;2024-01-30T05:43:06;3.50;99.90
20891;DHT22;10605;52.968;8.844;2024-01-30T05:45:33;3.50;99.90
20891;DHT22;10605;52.968;8.844;2024-01-30T05:48:00;3.50;99.90
20891;DHT22;10605;52.968;8.844;2024-01-30T05:50:26;3.50;99.90
20891;DHT22;10605;52.968;8.844;2024-01-30T05:52:52;3.50;99.90
20891;DHT22;10605;52.968;8.844;2024-01-30T05:55:18;3.50;99.90
20891;DHT22;10605;52.968;8.844;2024-01-30T05:57:44;3.40;99.90
20891;DHT22;10605;52.968;8.844;2024-01-30T06:00:10;3.40;99.90
20891;DHT22;10605;52.968;8.844;2024-01-30T06:02:36;3.40;99.90
20891;DHT22;10605;52.968;8.844;2024-01-30T06:05:02;3.40;99.90
20891;DHT22;10605;52.968;8.844;2024-01-30T06:07:27;3.40;99.90
20891;DHT22;10605;52.968;8.844;2024-01-30T06:09:53;3.40;99.90
20891;DHT22;10605;52.968;8.844;2024-01-30T06:12:19;3.30;99.90
20891;DHT22;10605;52.968;8.844;2024-01-30T06:14:44;3.40;99.90
20891;DHT22;10605;52.968;8.844;2024-01-30T06:17:10;3.40;99.90
20891;DHT22;10605;52.968;8.844;2024-01-30T06:19:40;3.40;99.90
20891;DHT22;10605;52.968;8.844;2024-01-30T06:22:06;3.40;99.90
20891;DHT22;10605;52.968;8.844;2024-01-30T06:24:32;3.30;99.90
20891;DHT22;10605;52.968;8.844;2024-01-30T06:26:59;3.10;99.90
20891;DHT22;10605;52.968;8.844;2024-01-30T06:29:24;3.10;99.90
20891;DHT22;10605;52.968;8.844;2024-01-30T06:31:52;3.10;99.90
20891;DHT22;10605;52.968;8.844;2024-01-30T06:34:17;3.20;99.90
20891;DHT22;10605;52.968;8.844;2024-01-30T06:36:43;3.30;99.90
20891;DHT22;10605;52.968;8.844;2024-01-30T06:39:09;3.40;99.90
20891;DHT22;10605;52.968;8.844;2024-01-30T06:41:34;3.40;99.90
20891;DHT22;10605;52.968;8.844;2024-01-30T06:44:02;3.40;99.90
20891;DHT22;10605;52.968;8.844;2024-01-30T06:46:28;3.50;99.90
20891;DHT22;10605;52.968;8.844;2024-01-30T06:48:54;3.60;99.90
20891;DHT22;10605;52.968;8.844;2024-01-30T06:51:20;3.60;99.90
20891;DHT22;10605;52.968;8.844;2024-01-30T06:53:45;3.60;99.90
20891;DHT22;10605;52.968;8.844;2024-01-30T06:56:11;3.70;99.90
20891;DHT22;10605;52.968;8.844;2024-01-30T06:58:36;3.70;99.90
20891;DHT22;10605;52.968;8.844;2024-01-30T07:01:02;3.90;99.90
20891;DHT22;10605;52.968;8.844;2024-01-30T07:03:28;4.00;99.90
20891;DHT22;10605;52.968;8.844;2024-01-30T07:05:54;4.00;99.90
20891;DHT22;10605;52.968;8.844;2024-01-30T07:08:19;3.90;99.90
20891;DHT22;10605;52.968;8.844;2024-01-30T07:10:46;4.00;99.90
20891;DHT22;10605;52.968;8.844;2024-01-30T07:13:12;4.00;99.90
20891;DHT22;10605;52.968;8.844;2024-01-30T07:15:37;3.90;99.90
20891;DHT22;10605;52.968;8.844;2024-01-30T07:18:04;3.90;99.90
20891;DHT22;10605;52.968;8.844;2024-01-30T07:20:30;4.00;99.90
20891;DHT22;10605;52.968;8.844;2024-01-30T07:22:58;4.00;99.90
20891;DHT22;10605;52.968;8.844;2024-01-30T07:25:23;4.10;99.90
20891;DHT22;10605;52.968;8.844;2024-01-30T07:27:52;4.20;99.90
20891;DHT22;10605;52.968;8.844;2024-01-30T07:30:19;4.20;99.90
20891;DHT22;10605;52.968;8.844;2024-01-30T07:32:47;4.30;99.90
20891;DHT22;10605;52.968;8.844;2024-01-30T07:35:13;4.40;99.90
20891;DHT22;10605;52.968;8.844;2024-01-30T07:37:39;4.30;99.90
20891;DHT22;10605;52.968;8.844;2024-01-30T07:40:06;4.30;99.90
20891;DHT22;10605;52.968;8.844;2024-01-30T07:42:33;4.40;99.90
20891;DHT22;10605;52.968;8.844;2024-01-30T07:45:00;4.40;99.90
20891;DHT22;10605;52.968;8.844;2024-01-30T07:47:28;4.40;99.90
20891;DHT22;10605;52.968;8.844;2024-01-30T07:49:54;4.50;99.90
20891;DHT22;10605;52.968;8.844;2024-01-30T07:52:19;4.50;99.90
20891;DHT22;10605;52.968;8.844;2024-01-30T07:54:45;4.50;99.90
20891;DHT22;10605;52.968;8.844;2024-01-30T07:57:11;4.60;99.90
20891;DHT22;10605;52.968;8.844;2024-01-30T07:59:36;4.60;99.90
20891;DHT22;10605;52.968;8.844;2024-01-30T08:02:02;4.60;99.90
20891;DHT22;10605;52.968;8.844;2024-01-30T08:04:28;4.70;99.90
20891;DHT22;10605;52.968;8.844;2024-01-30T08:06:53;5.00;99.90
20891;DHT22;10605;52.968;8.844;2024-01-30T08:09:19;5.20;99.90
20891;DHT22;10605;52.968;8.844;2024-01-30T08:11:45;5.30;99.90
20891;DHT22;10605;52.968;8.844;2024-01-30T08:14:10;5.40;99.90
20891;DHT22;10605;52.968;8.844;2024-01-30T08:16:36;5.50;99.90
20891;DHT22;10605;52.968;8.844;2024-01-30T08:19:02;5.60;99.90
20891;DHT22;10605;52.968;8.844;2024-01-30T08:21:28;5.70;99.90
20891;DHT22;10605;52.968;8.844;2024-01-30T08:23:54;5.80;99.90
20891;DHT22;10605;52.968;8.844;2024-01-30T08:26:19;5.90;99.90
20891;DHT22;10605;52.968;8.844;2024-01-30T08:28:45;6.10;99.90
20891;DHT22;10605;52.968;8.844;2024-01-30T08:31:11;6.20;99.90
20891;DHT22;10605;52.968;8.844;2024-01-30T08:33:37;6.30;99.90
20891;DHT22;10605;52.968;8.844;2024-01-30T08:36:05;6.50;99.90
20891;DHT22;10605;52.968;8.844;2024-01-30T08:38:31;6.70;99.90
20891;DHT22;10605;52.968;8.844;2024-01-30T08:40:56;6.70;99.90
20891;DHT22;10605;52.968;8.844;2024-01-30T08:43:22;6.90;99.90
20891;DHT22;10605;52.968;8.844;2024-01-30T08:45:48;6.90;99.90
20891;DHT22;10605;52.968;8.844;2024-01-30T08:48:13;7.10;99.90
20891;DHT22;10605;52.968;8.844;2024-01-30T08:50:39;7.20;99.90
20891;DHT22;10605;52.968;8.844;2024-01-30T08:53:05;7.30;99.90
20891;DHT22;10605;52.968;8.844;2024-01-30T08:55:30;7.40;99.90
20891;DHT22;10605;52.968;8.844;2024-01-30T08:57:56;7.60;99.90
20891;DHT22;10605;52.968;8.844;2024-01-30T09:00:22;7.60;99.90
20891;DHT22;10605;52.968;8.844;2024-01-30T09:02:47;7.70;99.90
20891;DHT22;10605;52.968;8.844;2024-01-30T09:05:13;7.80;99.90
20891;DHT22;10605;52.968;8.844;2024-01-30T09:07:39;8.00;99.90
20891;DHT22;10605;52.968;8.844;2024-01-30T09:10:05;8.10;99.90
20891;DHT22;10605;52.968;8.844;2024-01-30T09:12:31;8.30;99.90
20891;DHT22;10605;52.968;8.844;2024-01-30T09:14:57;8.40;99.90
20891;DHT22;10605;52.968;8.844;2024-01-30T09:17:22;8.50;99.90
20891;DHT22;10605;52.968;8.844;2024-01-30T09:19:48;8.60;99.90
20891;DHT22;10605;52.968;8.844;2024-01-30T09:22:14;8.70;99.90
20891;DHT22;10605;52.968;8.844;2024-01-30T09:24:40;8.70;99.90
20891;DHT22;10605;52.968;8.844;2024-01-30T09:27:05;8.80;99.90
20891;DHT22;10605;52.968;8.844;2024-01-30T09:29:31;8.90;99.90
20891;DHT22;10605;52.968;8.844;2024-01-30T09:31:59;9.00;99.90
20891;DHT22;10605;52.968;8.844;2024-01-30T09:34:25;9.10;99.90
20891;DHT22;10605;52.968;8.844;2024-01-30T09:36:51;9.10;99.90
20891;DHT22;10605;52.968;8.844;2024-01-30T09:39:16;9.20;99.90
20891;DHT22;10605;52.968;8.844;2024-01-30T09:41:48;9.20;99.90
20891;DHT22;10605;52.968;8.844;2024-01-30T09:44:16;9.30;99.90
20891;DHT22;10605;52.968;8.844;2024-01-30T09:46:43;9.30;99.90
20891;DHT22;10605;52.968;8.844;2024-01-30T09:49:11;9.30;99.90
20891;DHT22;10605;52.968;8.844;2024-01-30T09:51:37;9.40;99.90
20891;DHT22;10605;52.968;8.844;2024-01-30T09:54:03;9.40;99.90
20891;DHT22;10605;52.968;8.844;2024-01-30T09:56:38;9.40;99.90
20891;DHT22;10605;52.968;8.844;2024-01-30T09:59:07;9.50;99.90
20891;DHT22;10605;52.968;8.844;2024-01-30T10:01:35;9.60;99.90
20891;DHT22;10605;52.968;8.844;2024-01-30T10:04:01;9.80;99.90
20891;DHT22;10605;52.968;8.844;2024-01-30T10:06:27;9.80;99.90
20891;DHT22;10605;52.968;8.844;2024-01-30T10:08:53;9.80;99.90
20891;DHT22;10605;52.968;8.844;2024-01-30T10:11:19;9.90;99.90
20891;DHT22;10605;52.968;8.844;2024-01-30T10:13:45;9.90;99.90
20891;DHT22;10605;52.968;8.844;2024-01-30T10:16:14;9.90;99.90
20891;DHT22;10605;52.968;8.844;2024-01-30T10:18:41;9.90;99.90
20891;DHT22;10605;52.968;8.844;2024-01-30T10:21:08;10.10;99.90
20891;DHT22;10605;52.968;8.844;2024-01-30T10:23:34;10.00;99.90
20891;DHT22;10605;52.968;8.844;2024-01-30T10:25:59;9.90;99.90
20891;DHT22;10605;52.968;8.844;2024-01-30T10:28:28;9.90;99.90
20891;DHT22;10605;52.968;8.844;2024-01-30T10:30:59;9.90;99.90
20891;DHT22;10605;52.968;8.844;2024-01-30T10:33:26;9.90;99.90
20891;DHT22;10605;52.968;8.844;2024-01-30T10:35:56;9.80;99.90
20891;DHT22;10605;52.968;8.844;2024-01-30T10:38:30;9.80;99.90
20891;DHT22;10605;52.968;8.844;2024-01-30T10:41:00;9.90;99.90
20891;DHT22;10605;52.968;8.844;2024-01-30T10:43:35;10.00;99.90
20891;DHT22;10605;52.968;8.844;2024-01-30T10:46:18;10.10;99.90
20891;DHT22;10605;52.968;8.844;2024-01-30T10:48:53;10.30;99.90
20891;DHT22;10605;52.968;8.844;2024-01-30T10:51:22;10.50;99.90
20891;DHT22;10605;52.968;8.844;2024-01-30T10:53:49;10.60;99.90
20891;DHT22;10605;52.968;8.844;2024-01-30T10:56:16;10.80;99.90
20891;DHT22;10605;52.968;8.844;2024-01-30T10:58:42;11.00;99.90
20891;DHT22;10605;52.968;8.844;2024-01-30T11:01:08;11.20;99.90
20891;DHT22;10605;52.968;8.844;2024-01-30T11:03:35;11.20;99.90
20891;DHT22;10605;52.968;8.844;2024-01-30T11:06:02;11.50;99.90
20891;DHT22;10605;52.968;8.844;2024-01-30T11:08:31;11.50;99.90
20891;DHT22;10605;52.968;8.844;2024-01-30T11:10:58;11.50;99.90
20891;DHT22;10605;52.968;8.844;2024-01-30T11:13:30;11.60;99.90
20891;DHT22;10605;52.968;8.844;2024-01-30T11:16:03;11.40;99.90
20891;DHT22;10605;52.968;8.844;2024-01-30T11:18:30;11.30;99.90
20891;DHT22;10605;52.968;8.844;2024-01-30T11:21:01;11.40;99.90
20891;DHT22;10605;52.968;8.844;2024-01-30T11:23:28;11.40;99.90
20891;DHT22;10605;52.968;8.844;2024-01-30T11:25:54;11.30;99.90
20891;DHT22;10605;52.968;8.844;2024-01-30T11:28:21;11.30;99.90
20891;DHT22;10605;52.968;8.844;2024-01-30T11:30:47;11.40;99.90
20891;DHT22;10605;52.968;8.844;2024-01-30T11:33:27;11.30;99.90
20891;DHT22;10605;52.968;8.844;2024-01-30T11:35:57;11.30;99.90
20891;DHT22;10605;52.968;8.844;2024-01-30T11:38:26;11.40;99.90
20891;DHT22;10605;52.968;8.844;2024-01-30T11:40:53;11.60;99.90
20891;DHT22;10605;52.968;8.844;2024-01-30T11:43:19;11.70;99.90
20891;DHT22;10605;52.968;8.844;2024-01-30T11:45:45;11.60;99.90
20891;DHT22;10605;52.968;8.844;2024-01-30T11:48:12;11.60;99.90
20891;DHT22;10605;52.968;8.844;2024-01-30T11:50:38;11.60;99.90
20891;DHT22;10605;52.968;8.844;2024-01-30T11:53:05;11.60;99.90
20891;DHT22;10605;52.968;8.844;2024-01-30T11:55:31;11.50;99.90
20891;DHT22;10605;52.968;8.844;2024-01-30T11:57:57;11.40;99.90
20891;DHT22;10605;52.968;8.844;2024-01-30T12:00:24;11.20;99.90
20891;DHT22;10605;52.968;8.844;2024-01-30T12:02:51;11.10;99.90
20891;DHT22;10605;52.968;8.844;2024-01-30T12:05:24;11.00;99.90
20891;DHT22;10605;52.968;8.844;2024-01-30T12:07:51;10.90;99.90
20891;DHT22;10605;52.968;8.844;2024-01-30T12:10:17;10.80;99.90
20891;DHT22;10605;52.968;8.844;2024-01-30T12:12:46;10.80;99.90
20891;DHT22;10605;52.968;8.844;2024-01-30T12:15:13;10.80;99.90
20891;DHT22;10605;52.968;8.844;2024-01-30T12:17:39;10.80;99.90
20891;DHT22;10605;52.968;8.844;2024-01-30T12:20:12;10.90;99.90
20891;DHT22;10605;52.968;8.844;2024-01-30T12:22:40;10.90;99.90
20891;DHT22;10605;52.968;8.844;2024-01-30T12:25:16;10.90;99.90
20891;DHT22;10605;52.968;8.844;2024-01-30T12:27:44;11.00;99.90
20891;DHT22;10605;52.968;8.844;2024-01-30T12:30:12;11.20;99.90
20891;DHT22;10605;52.968;8.844;2024-01-30T12:32:45;11.20;99.90
20891;DHT22;10605;52.968;8.844;2024-01-30T12:35:15;11.10;99.90
20891;DHT22;10605;52.968;8.844;2024-01-30T12:37:43;11.20;99.90
20891;DHT22;10605;52.968;8.844;2024-01-30T12:40:10;11.30;99.90
20891;DHT22;10605;52.968;8.844;2024-01-30T12:42:40;11.40;99.90
20891;DHT22;10605;52.968;8.844;2024-01-30T12:45:11;11.50;99.90
20891;DHT22;10605;52.968;8.844;2024-01-30T12:47:37;11.50;99.90
20891;DHT22;10605;52.968;8.844;2024-01-30T12:50:05;11.50;99.90
20891;DHT22;10605;52.968;8.844;2024-01-30T12:52:31;11.50;99.90
20891;DHT22;10605;52.968;8.844;2024-01-30T12:54:57;11.50;99.90
20891;DHT22;10605;52.968;8.844;2024-01-30T12:57:22;11.40;99.90
20891;DHT22;10605;52.968;8.844;2024-01-30T12:59:48;11.40;99.90
20891;DHT22;10605;52.968;8.844;2024-01-30T13:02:14;11.40;99.90
20891;DHT22;10605;52.968;8.844;2024-01-30T13:04:40;11.50;99.90
20891;DHT22;10605;52.968;8.844;2024-01-30T13:07:06;11.40;99.90
20891;DHT22;10605;52.968;8.844;2024-01-30T13:09:32;11.40;99.90
20891;DHT22;10605;52.968;8.844;2024-01-30T13:12:00;11.50;99.90
20891;DHT22;10605;52.968;8.844;2024-01-30T13:14:26;11.60;99.90
20891;DHT22;10605;52.968;8.844;2024-01-30T13:16:52;11.50;99.90
20891;DHT22;10605;52.968;8.844;2024-01-30T13:19:18;11.50;99.90
20891;DHT22;10605;52.968;8.844;2024-01-30T13:21:43;11.60;99.90
20891;DHT22;10605;52.968;8.844;2024-01-30T13:24:09;11.60;99.90
20891;DHT22;10605;52.968;8.844;2024-01-30T13:26:35;11.50;99.90
20891;DHT22;10605;52.968;8.844;2024-01-30T13:29:01;11.40;99.90
20891;DHT22;10605;52.968;8.844;2024-01-30T13:31:27;11.50;99.90
20891;DHT22;10605;52.968;8.844;2024-01-30T13:33:53;11.50;99.90
20891;DHT22;10605;52.968;8.844;2024-01-30T13:36:22;11.40;99.90
20891;DHT22;10605;52.968;8.844;2024-01-30T13:38:48;11.40;99.90
20891;DHT22;10605;52.968;8.844;2024-01-30T13:41:14;11.40;99.90
20891;DHT22;10605;52.968;8.844;2024-01-30T13:43:40;11.30;99.90
20891;DHT22;10605;52.968;8.844;2024-01-30T13:46:08;11.40;99.90
20891;DHT22;10605;52.968;8.844;2024-01-30T13:48:33;11.40;99.90
20891;DHT22;10605;52.968;8.844;2024-01-30T13:50:59;11.40;99.90
20891;DHT22;10605;52.968;8.844;2024-01-30T13:53:25;11.40;99.90
20891;DHT22;10605;52.968;8.844;2024-01-30T13:55:50;11.50;99.90
20891;DHT22;10605;52.968;8.844;2024-01-30T13:58:16;11.50;99.90
20891;DHT22;10605;52.968;8.844;2024-01-30T14:00:42;11.50;99.90
20891;DHT22;10605;52.968;8.844;2024-01-30T14:03:07;11.40;99.90
20891;DHT22;10605;52.968;8.844;2024-01-30T14:05:33;11.50;99.90
20891;DHT22;10605;52.968;8.844;2024-01-30T14:07:59;11.40;99.90
20891;DHT22;10605;52.968;8.844;2024-01-30T14:10:26;11.40;99.90
20891;DHT22;10605;52.968;8.844;2024-01-30T14:12:53;11.50;99.90
20891;DHT22;10605;52.968;8.844;2024-01-30T14:15:58;11.40;99.90
20891;DHT22;10605;52.968;8.844;2024-01-30T14:22:17;11.40;99.90
20891;DHT22;10605;52.968;8.844;2024-01-30T14:25:20;11.50;99.90
20891;DHT22;10605;52.968;8.844;2024-01-30T14:27:55;11.50;99.90
20891;DHT22;10605;52.968;8.844;2024-01-30T14:30:48;11.70;99.90
20891;DHT22;10605;52.968;8.844;2024-01-30T14:33:35;11.80;99.90
20891;DHT22;10605;52.968;8.844;2024-01-30T14:36:01;11.80;99.90
20891;DHT22;10605;52.968;8.844;2024-01-30T14:38:26;11.90;99.90
20891;DHT22;10605;52.968;8.844;2024-01-30T14:40:53;12.10;99.90
20891;DHT22;10605;52.968;8.844;2024-01-30T14:43:19;12.10;99.90
20891;DHT22;10605;52.968;8.844;2024-01-30T14:45:45;12.10;99.90
20891;DHT22;10605;52.968;8.844;2024-01-30T14:48:13;12.00;99.90
20891;DHT22;10605;52.968;8.844;2024-01-30T14:50:41;11.80;99.90
20891;DHT22;10605;52.968;8.844;2024-01-30T14:53:07;11.60;99.90
20891;DHT22;10605;52.968;8.844;2024-01-30T14:55:32;11.60;99.90
20891;DHT22;10605;52.968;8.844;2024-01-30T14:57:58;11.50;99.90
20891;DHT22;10605;52.968;8.844;2024-01-30T15:00:25;11.30;99.90
20891;DHT22;10605;52.968;8.844;2024-01-30T15:02:50;11.30;99.90
20891;DHT22;10605;52.968;8.844;2024-01-30T15:05:16;11.20;99.90
20891;DHT22;10605;52.968;8.844;2024-01-30T15:07:42;11.20;99.90
20891;DHT22;10605;52.968;8.844;2024-01-30T15:10:10;11.10;99.90
20891;DHT22;10605;52.968;8.844;2024-01-30T15:12:37;11.10;99.90
20891;DHT22;10605;52.968;8.844;2024-01-30T15:15:04;11.10;99.90
20891;DHT22;10605;52.968;8.844;2024-01-30T15:17:30;11.10;99.90
20891;DHT22;10605;52.968;8.844;2024-01-30T15:19:56;11.10;99.90
20891;DHT22;10605;52.968;8.844;2024-01-30T15:22:23;11.10;99.90
20891;DHT22;10605;52.968;8.844;2024-01-30T15:24:49;11.20;99.90
20891;DHT22;10605;52.968;8.844;2024-01-30T15:27:14;11.20;99.90
20891;DHT22;10605;52.968;8.844;2024-01-30T15:29:43;11.20;99.90
20891;DHT22;10605;52.968;8.844;2024-01-30T15:32:27;11.10;99.90
20891;DHT22;10605;52.968;8.844;2024-01-30T15:34:57;11.00;99.90
20891;DHT22;10605;52.968;8.844;2024-01-30T15:40:28;11.10;99.90
20891;DHT22;10605;52.968;8.844;2024-01-30T15:42:54;11.00;99.90
20891;DHT22;10605;52.968;8.844;2024-01-30T15:45:20;11.00;99.90